Sea Wave — WDF4968 — position and weather

sailwx.info

Track history (hours):
 
Tides and Currents Weather Stations Pressure Air Temp Water Temp Dewpoint Dewpoint Depression Visibility Wind Speed Wind Dir Waves Ship Positions

Sea Wave

Owner: Sea Wave Corp., Salinas, CA. More information available from US FCC via Universal Licensing System and Coast Guard Vessel Documentation Center.

Last reported at 2017-Dec-10 19:13 UTC. Time now 2017-Dec-12 23:50 UTC.
Position N 34°01' W 119°30'.

Length 26 m.

Type: Fishing. MMSI: 367457870.

Date/timePositionNaut miles runAvg speedWind from/ knotsBaromVisibWave heightAir tempDewpointWater temp
2017-Dec-10 19:13N 34°01' W 119°30'2 9.3
2017-Dec-10 18:59N 34°03' W 119°28'5 9.4
2017-Dec-10 18:27N 34°06' W 119°24'4 8.2
2017-Dec-10 17:59N 34°10' W 119°22'5 8.9
2017-Dec-10 17:29N 34°13' W 119°18'2 1.8
2017-Dec-10 16:10N 34°15' W 119°16'0 0.0
2017-Dec-08 18:10N 34°15' W 119°16'1 8.9
2017-Dec-08 18:00N 34°13' W 119°17'4 7.9
2017-Dec-08 17:26N 34°09' W 119°16'10 1.9
2017-Dec-08 12:20N 34°03' W 119°25'4 8.6
2017-Dec-08 11:52N 34°01' W 119°29'1 0.1
2017-Dec-08 00:24N 34°01' W 119°30'5 9.7
2017-Dec-07 23:52N 34°05' W 119°26'4 9.0
2017-Dec-07 23:22N 34°08' W 119°23'3 0.2
2017-Dec-07 07:18N 34°11' W 119°20'2 8.3
2017-Dec-07 07:00N 34°09' W 119°22'4 8.0
2017-Dec-07 06:29N 34°06' W 119°25'4 8.2
2017-Dec-07 05:58N 34°02' W 119°28'2 0.4
2017-Dec-07 00:24N 34°00' W 119°30'5 9.2
2017-Dec-06 23:54N 34°04' W 119°26'4 9.1
2017-Dec-06 23:29N 34°07' W 119°24'5 9.1
2017-Dec-06 22:56N 34°11' W 119°20'  
2017-Dec-03 20:59N 34°01' W 119°30'5 9.0
2017-Dec-03 20:29N 34°05' W 119°27'4 8.7
2017-Dec-03 19:59N 34°08' W 119°24'4 8.9
2017-Dec-03 19:30N 34°11' W 119°20'5 8.9
2017-Dec-03 18:56N 34°15' W 119°16'0 0.3
2017-Dec-03 17:16N 34°15' W 119°16'0 0.0
2017-Dec-03 16:19N 34°15' W 119°16'0 0.0
2017-Dec-03 15:58N 34°15' W 119°16'0 0.0
2017-Dec-03 15:28N 34°15' W 119°16'0 0.0
2017-Dec-03 14:46N 34°15' W 119°16'0 0.0
2017-Dec-03 14:28N 34°15' W 119°16'0 0.0
2017-Dec-03 13:58N 34°15' W 119°16'0 0.0
2017-Dec-03 13:10N 34°15' W 119°16'0 0.0
2017-Dec-03 12:58N 34°15' W 119°16'0 0.0
2017-Dec-03 12:25N 34°15' W 119°16'0 0.0
2017-Dec-03 11:43N 34°15' W 119°16'0 0.0
2017-Dec-03 10:37N 34°15' W 119°16'0 0.0
2017-Dec-03 10:13N 34°15' W 119°16'0 0.0
2017-Dec-03 09:55N 34°15' W 119°16'0 0.0
2017-Dec-03 09:19N 34°15' W 119°16'0 0.0
2017-Dec-03 08:58N 34°15' W 119°16'0 0.0
2017-Dec-03 08:16N 34°15' W 119°16'0 0.0
2017-Dec-03 07:52N 34°15' W 119°16'0 0.0
2017-Dec-03 07:01N 34°15' W 119°16'0 0.0
2017-Dec-03 06:52N 34°15' W 119°16'0 0.0
2017-Dec-03 06:25N 34°15' W 119°16'0 0.0
2017-Dec-03 05:58N 34°15' W 119°16'0 0.0
2017-Dec-03 05:28N 34°15' W 119°16'0 0.0
2017-Dec-03 04:37N 34°15' W 119°16'0 0.0
2017-Dec-03 04:28N 34°15' W 119°16'0 0.0
2017-Dec-03 03:55N 34°15' W 119°16'0 0.0
2017-Dec-03 03:22N 34°15' W 119°16'0 0.0
2017-Dec-03 02:55N 34°15' W 119°16'0 0.0
2017-Dec-03 02:25N 34°15' W 119°16'0 0.0
2017-Dec-03 01:55N 34°15' W 119°16'0 0.0
2017-Dec-03 00:55N 34°15' W 119°16'0 0.0
2017-Dec-03 00:25N 34°15' W 119°16'0 0.0
2017-Dec-02 23:58N 34°15' W 119°16'0 0.0
2017-Dec-02 23:25N 34°15' W 119°16'0 0.0
2017-Dec-02 22:52N 34°15' W 119°16'0 0.0
2017-Dec-02 22:19N 34°15' W 119°16'0 0.0
2017-Dec-02 21:58N 34°15' W 119°16'0 0.0
2017-Dec-02 21:28N 34°15' W 119°16'0 0.0
2017-Dec-02 20:46N 34°15' W 119°16'0 0.0
2017-Dec-02 20:28N 34°15' W 119°16'0 0.0
2017-Dec-02 19:58N 34°15' W 119°16'0 0.0
2017-Dec-02 19:25N 34°15' W 119°16'0 0.0
2017-Dec-02 18:58N 34°15' W 119°16'0 0.0
2017-Dec-02 18:25N 34°15' W 119°16'0 0.0
2017-Dec-02 17:58N 34°15' W 119°16'0 0.0
2017-Dec-02 17:28N 34°15' W 119°16'0 0.0
2017-Dec-02 16:52N 34°15' W 119°16'0 0.0
2017-Dec-02 16:25N 34°15' W 119°16'0 0.0
2017-Dec-02 15:55N 34°15' W 119°16'0 0.0
2017-Dec-02 14:49N 34°15' W 119°16'0 0.0
2017-Dec-02 14:28N 34°15' W 119°16'0 0.0
2017-Dec-02 13:58N 34°15' W 119°16'0 0.0
2017-Dec-02 13:25N 34°15' W 119°16'0 0.0
2017-Dec-02 12:58N 34°15' W 119°16'0 0.0
2017-Dec-02 12:28N 34°15' W 119°16'0 0.0
2017-Dec-02 11:55N 34°15' W 119°16'0 0.0
2017-Dec-02 11:19N 34°15' W 119°16'0 0.0
2017-Dec-02 10:49N 34°15' W 119°16'0 0.0
2017-Dec-02 10:28N 34°15' W 119°16'0 0.0
2017-Dec-02 09:55N 34°15' W 119°16'0 0.0
2017-Dec-02 09:28N 34°15' W 119°16'0 0.0
2017-Dec-02 08:52N 34°15' W 119°16'0 0.0
2017-Dec-02 08:25N 34°15' W 119°16'0 0.0
2017-Dec-02 07:55N 34°15' W 119°16'0 0.0
2017-Dec-02 07:25N 34°15' W 119°16'0 0.0
2017-Dec-02 06:55N 34°15' W 119°16'0 0.0
2017-Dec-02 06:28N 34°15' W 119°16'0 0.0
2017-Dec-02 05:52N 34°15' W 119°16'0 0.0
2017-Dec-02 05:22N 34°15' W 119°16'0 0.0
2017-Dec-02 04:49N 34°15' W 119°16'0 0.0
2017-Dec-02 04:25N 34°15' W 119°16'0 0.0
2017-Dec-02 03:46N 34°15' W 119°16'0 0.0
2017-Dec-02 03:25N 34°15' W 119°16'0 0.0
2017-Dec-02 02:58N 34°15' W 119°16'0 0.0
2017-Dec-02 02:28N 34°15' W 119°16'0 0.0
2017-Dec-02 01:52N 34°15' W 119°16'0 0.0
2017-Dec-02 01:19N 34°15' W 119°16'0 0.0
2017-Dec-02 00:07N 34°15' W 119°16'0 0.0
2017-Dec-01 23:58N 34°15' W 119°16'0 0.0
2017-Dec-01 23:25N 34°15' W 119°16'0 0.0
2017-Dec-01 22:04N 34°15' W 119°16'0 0.0
2017-Dec-01 21:58N 34°15' W 119°16'0 0.0
2017-Dec-01 21:25N 34°15' W 119°16'0 0.0
2017-Dec-01 20:52N 34°15' W 119°16'0 0.0
2017-Dec-01 20:16N 34°15' W 119°16'0 0.0
2017-Dec-01 19:58N 34°15' W 119°16'0 0.0
2017-Dec-01 19:28N 34°15' W 119°16'0 0.0
2017-Dec-01 18:58N 34°15' W 119°16'0 0.0
2017-Dec-01 18:10N 34°15' W 119°16'0 0.0
2017-Dec-01 17:34N 34°15' W 119°16'0 0.0
2017-Dec-01 17:04N 34°15' W 119°16'0 0.0
2017-Dec-01 16:49N 34°15' W 119°16'0 0.0
2017-Dec-01 16:22N 34°15' W 119°16'0 0.0
2017-Dec-01 15:58N 34°15' W 119°16'0 0.0
2017-Dec-01 15:28N 34°15' W 119°16'0 0.0
2017-Dec-01 14:49N 34°15' W 119°16'0 0.0
2017-Dec-01 14:28N 34°15' W 119°16'0 0.0
2017-Dec-01 13:58N 34°15' W 119°16'0 0.0
2017-Dec-01 13:28N 34°15' W 119°16'0 0.0
2017-Dec-01 12:55N 34°15' W 119°16'0 0.0
2017-Dec-01 12:25N 34°15' W 119°16'0 0.1
2017-Dec-01 12:00N 34°15' W 119°16'5 7.7
2017-Dec-01 11:23N 34°12' W 119°20'4 9.2
2017-Dec-01 11:00N 34°09' W 119°23'5 9.1
2017-Dec-01 10:30N 34°05' W 119°26'4 8.9
2017-Dec-01 10:00N 34°02' W 119°30'1 0.1
2017-Nov-30 23:42N 34°01' W 119°30'2 9.1
2017-Nov-30 23:29N 34°02' W 119°28'4 8.8
2017-Nov-30 22:59N 34°06' W 119°25'4 9.0
2017-Nov-30 22:29N 34°09' W 119°21'6 8.7
2017-Nov-30 21:50N 34°14' W 119°17'2 4.9
2017-Nov-30 21:29N 34°15' W 119°16'0 0.1
2017-Nov-30 20:40N 34°15' W 119°16'0 0.0
2017-Nov-30 20:22N 34°15' W 119°16'  
Track history (hours):
 
Tides and Currents Weather Stations Pressure Air Temp Water Temp Dewpoint Dewpoint Depression Visibility Wind Speed Wind Dir Waves Ship Positions

Sea Wave

Owner: Sea Wave Corp., Salinas, CA. More information available from US FCC via Universal Licensing System and Coast Guard Vessel Documentation Center.

Last reported at 2017-Dec-10 19:13 UTC. Time now 2017-Dec-12 23:50 UTC.
Position N 34°01' W 119°30'.

Length 26 m.

Type: Fishing. MMSI: 367457870.

Date/timePositionNaut miles runAvg speedWind from/ knotsBaromVisibWave heightAir tempDewpointWater temp
2017-Dec-10 19:13N 34°01' W 119°30'2 9.3
2017-Dec-10 18:59N 34°03' W 119°28'5 9.4
2017-Dec-10 18:27N 34°06' W 119°24'4 8.2
2017-Dec-10 17:59N 34°10' W 119°22'5 8.9
2017-Dec-10 17:29N 34°13' W 119°18'2 1.8
2017-Dec-10 16:10N 34°15' W 119°16'0 0.0
2017-Dec-08 18:10N 34°15' W 119°16'1 8.9
2017-Dec-08 18:00N 34°13' W 119°17'4 7.9
2017-Dec-08 17:26N 34°09' W 119°16'10 1.9
2017-Dec-08 12:20N 34°03' W 119°25'4 8.6
2017-Dec-08 11:52N 34°01' W 119°29'1 0.1
2017-Dec-08 00:24N 34°01' W 119°30'5 9.7
2017-Dec-07 23:52N 34°05' W 119°26'4 9.0
2017-Dec-07 23:22N 34°08' W 119°23'3 0.2
2017-Dec-07 07:18N 34°11' W 119°20'2 8.3
2017-Dec-07 07:00N 34°09' W 119°22'4 8.0
2017-Dec-07 06:29N 34°06' W 119°25'4 8.2
2017-Dec-07 05:58N 34°02' W 119°28'2 0.4
2017-Dec-07 00:24N 34°00' W 119°30'5 9.2
2017-Dec-06 23:54N 34°04' W 119°26'4 9.1
2017-Dec-06 23:29N 34°07' W 119°24'5 9.1
2017-Dec-06 22:56N 34°11' W 119°20'  
2017-Dec-03 20:59N 34°01' W 119°30'5 9.0
2017-Dec-03 20:29N 34°05' W 119°27'4 8.7
2017-Dec-03 19:59N 34°08' W 119°24'4 8.9
2017-Dec-03 19:30N 34°11' W 119°20'5 8.9
2017-Dec-03 18:56N 34°15' W 119°16'0 0.3
2017-Dec-03 17:16N 34°15' W 119°16'0 0.0
2017-Dec-03 16:19N 34°15' W 119°16'0 0.0
2017-Dec-03 15:58N 34°15' W 119°16'0 0.0
2017-Dec-03 15:28N 34°15' W 119°16'0 0.0
2017-Dec-03 14:46N 34°15' W 119°16'0 0.0
2017-Dec-03 14:28N 34°15' W 119°16'0 0.0
2017-Dec-03 13:58N 34°15' W 119°16'0 0.0
2017-Dec-03 13:10N 34°15' W 119°16'0 0.0
2017-Dec-03 12:58N 34°15' W 119°16'0 0.0
2017-Dec-03 12:25N 34°15' W 119°16'0 0.0
2017-Dec-03 11:43N 34°15' W 119°16'0 0.0
2017-Dec-03 10:37N 34°15' W 119°16'0 0.0
2017-Dec-03 10:13N 34°15' W 119°16'0 0.0
2017-Dec-03 09:55N 34°15' W 119°16'0 0.0
2017-Dec-03 09:19N 34°15' W 119°16'0 0.0
2017-Dec-03 08:58N 34°15' W 119°16'0 0.0
2017-Dec-03 08:16N 34°15' W 119°16'0 0.0
2017-Dec-03 07:52N 34°15' W 119°16'0 0.0
2017-Dec-03 07:01N 34°15' W 119°16'0 0.0
2017-Dec-03 06:52N 34°15' W 119°16'0 0.0
2017-Dec-03 06:25N 34°15' W 119°16'0 0.0
2017-Dec-03 05:58N 34°15' W 119°16'0 0.0
2017-Dec-03 05:28N 34°15' W 119°16'0 0.0
2017-Dec-03 04:37N 34°15' W 119°16'0 0.0
2017-Dec-03 04:28N 34°15' W 119°16'0 0.0
2017-Dec-03 03:55N 34°15' W 119°16'0 0.0
2017-Dec-03 03:22N 34°15' W 119°16'0 0.0
2017-Dec-03 02:55N 34°15' W 119°16'0 0.0
2017-Dec-03 02:25N 34°15' W 119°16'0 0.0
2017-Dec-03 01:55N 34°15' W 119°16'0 0.0
2017-Dec-03 00:55N 34°15' W 119°16'0 0.0
2017-Dec-03 00:25N 34°15' W 119°16'0 0.0
2017-Dec-02 23:58N 34°15' W 119°16'0 0.0
2017-Dec-02 23:25N 34°15' W 119°16'0 0.0
2017-Dec-02 22:52N 34°15' W 119°16'0 0.0
2017-Dec-02 22:19N 34°15' W 119°16'0 0.0
2017-Dec-02 21:58N 34°15' W 119°16'0 0.0
2017-Dec-02 21:28N 34°15' W 119°16'0 0.0
2017-Dec-02 20:46N 34°15' W 119°16'0 0.0
2017-Dec-02 20:28N 34°15' W 119°16'0 0.0
2017-Dec-02 19:58N 34°15' W 119°16'0 0.0
2017-Dec-02 19:25N 34°15' W 119°16'0 0.0
2017-Dec-02 18:58N 34°15' W 119°16'0 0.0
2017-Dec-02 18:25N 34°15' W 119°16'0 0.0
2017-Dec-02 17:58N 34°15' W 119°16'0 0.0
2017-Dec-02 17:28N 34°15' W 119°16'0 0.0
2017-Dec-02 16:52N 34°15' W 119°16'0 0.0
2017-Dec-02 16:25N 34°15' W 119°16'0 0.0
2017-Dec-02 15:55N 34°15' W 119°16'0 0.0
2017-Dec-02 14:49N 34°15' W 119°16'0 0.0
2017-Dec-02 14:28N 34°15' W 119°16'0 0.0
2017-Dec-02 13:58N 34°15' W 119°16'0 0.0
2017-Dec-02 13:25N 34°15' W 119°16'0 0.0
2017-Dec-02 12:58N 34°15' W 119°16'0 0.0
2017-Dec-02 12:28N 34°15' W 119°16'0 0.0
2017-Dec-02 11:55N 34°15' W 119°16'0 0.0
2017-Dec-02 11:19N 34°15' W 119°16'0 0.0
2017-Dec-02 10:49N 34°15' W 119°16'0 0.0
2017-Dec-02 10:28N 34°15' W 119°16'0 0.0
2017-Dec-02 09:55N 34°15' W 119°16'0 0.0
2017-Dec-02 09:28N 34°15' W 119°16'0 0.0
2017-Dec-02 08:52N 34°15' W 119°16'0 0.0
2017-Dec-02 08:25N 34°15' W 119°16'0 0.0
2017-Dec-02 07:55N 34°15' W 119°16'0 0.0
2017-Dec-02 07:25N 34°15' W 119°16'0 0.0
2017-Dec-02 06:55N 34°15' W 119°16'0 0.0
2017-Dec-02 06:28N 34°15' W 119°16'0 0.0
2017-Dec-02 05:52N 34°15' W 119°16'0 0.0
2017-Dec-02 05:22N 34°15' W 119°16'0 0.0
2017-Dec-02 04:49N 34°15' W 119°16'0 0.0
2017-Dec-02 04:25N 34°15' W 119°16'0 0.0
2017-Dec-02 03:46N 34°15' W 119°16'0 0.0
2017-Dec-02 03:25N 34°15' W 119°16'0 0.0
2017-Dec-02 02:58N 34°15' W 119°16'0 0.0
2017-Dec-02 02:28N 34°15' W 119°16'0 0.0
2017-Dec-02 01:52N 34°15' W 119°16'0 0.0
2017-Dec-02 01:19N 34°15' W 119°16'0 0.0
2017-Dec-02 00:07N 34°15' W 119°16'0 0.0
2017-Dec-01 23:58N 34°15' W 119°16'0 0.0
2017-Dec-01 23:25N 34°15' W 119°16'0 0.0
2017-Dec-01 22:04N 34°15' W 119°16'0 0.0
2017-Dec-01 21:58N 34°15' W 119°16'0 0.0
2017-Dec-01 21:25N 34°15' W 119°16'0 0.0
2017-Dec-01 20:52N 34°15' W 119°16'0 0.0
2017-Dec-01 20:16N 34°15' W 119°16'0 0.0
2017-Dec-01 19:58N 34°15' W 119°16'0 0.0
2017-Dec-01 19:28N 34°15' W 119°16'0 0.0
2017-Dec-01 18:58N 34°15' W 119°16'0 0.0
2017-Dec-01 18:10N 34°15' W 119°16'0 0.0
2017-Dec-01 17:34N 34°15' W 119°16'0 0.0
2017-Dec-01 17:04N 34°15' W 119°16'0 0.0
2017-Dec-01 16:49N 34°15' W 119°16'0 0.0
2017-Dec-01 16:22N 34°15' W 119°16'0 0.0
2017-Dec-01 15:58N 34°15' W 119°16'0 0.0
2017-Dec-01 15:28N 34°15' W 119°16'0 0.0
2017-Dec-01 14:49N 34°15' W 119°16'0 0.0
2017-Dec-01 14:28N 34°15' W 119°16'0 0.0
2017-Dec-01 13:58N 34°15' W 119°16'0 0.0
2017-Dec-01 13:28N 34°15' W 119°16'0 0.0
2017-Dec-01 12:55N 34°15' W 119°16'0 0.0
2017-Dec-01 12:25N 34°15' W 119°16'0 0.1
2017-Dec-01 12:00N 34°15' W 119°16'5 7.7
2017-Dec-01 11:23N 34°12' W 119°20'4 9.2
2017-Dec-01 11:00N 34°09' W 119°23'5 9.1
2017-Dec-01 10:30N 34°05' W 119°26'4 8.9
2017-Dec-01 10:00N 34°02' W 119°30'1 0.1
2017-Nov-30 23:42N 34°01' W 119°30'2 9.1
2017-Nov-30 23:29N 34°02' W 119°28'4 8.8
2017-Nov-30 22:59N 34°06' W 119°25'4 9.0
2017-Nov-30 22:29N 34°09' W 119°21'6 8.7
2017-Nov-30 21:50N 34°14' W 119°17'2 4.9
2017-Nov-30 21:29N 34°15' W 119°16'0 0.1
2017-Nov-30 20:40N 34°15' W 119°16'0 0.0
2017-Nov-30 20:22N 34°15' W 119°16'  

Dump ship's entire track history